Time;durP1;ratioP1;P1;durP2;ratioP2;P2;SDS_P1;SDS_P2;PMS_P1;PMS_P2;Temp;Humidity;BMP_temperature;BMP_pressure;BME280_temperature;BME280_humidity;BME280_pressure;Samples;Min_cycle;Max_cycle;Signal;HPM_P1;HPM_P2
2022/12/27 00:01:25;;;;;;;0.50;0.50;;;12.50;81.60;;;;;;5055513;28;20055;-66
2022/12/27 00:03:51;;;;;;;0.40;0.40;;;12.50;81.70;;;;;;5055822;28;20037;-66
2022/12/27 00:06:19;;;;;;;0.30;0.30;;;12.50;81.40;;;;;;5055480;28;20109;-66
2022/12/27 00:08:46;;;;;;;0.60;0.22;;;12.60;81.40;;;;;;5055290;28;20029;-66
2022/12/27 00:11:14;;;;;;;0.22;0.20;;;12.50;81.20;;;;;;5056088;28;20044;-66
2022/12/27 00:13:40;;;;;;;0.47;0.35;;;12.50;81.20;;;;;;5055708;28;20033;-66
2022/12/27 00:16:10;;;;;;;0.63;0.40;;;12.50;81.30;;;;;;5055626;28;20422;-66
2022/12/27 00:18:36;;;;;;;0.30;0.30;;;12.50;81.40;;;;;;5055379;28;20021;-66
2022/12/27 00:21:04;;;;;;;2.53;0.43;;;12.50;81.20;;;;;;5055113;28;20040;-66
2022/12/27 00:23:36;;;;;;;0.52;0.30;;;12.50;80.90;;;;;;5055171;28;20055;-66
2022/12/27 00:26:04;;;;;;;0.57;0.38;;;12.60;80.90;;;;;;5055334;28;20363;-66
2022/12/27 00:28:31;;;;;;;0.85;0.50;;;12.50;80.90;;;;;;5055104;28;20074;-67
2022/12/27 00:30:58;;;;;;;0.25;0.25;;;12.50;81.40;;;;;;5055392;28;20029;-66
2022/12/27 00:33:24;;;;;;;0.30;0.30;;;12.50;81.80;;;;;;5055073;28;20032;-67
2022/12/27 00:35:50;;;;;;;0.30;0.25;;;12.50;82.20;;;;;;5055016;28;20043;-67
2022/12/27 00:38:16;;;;;;;0.40;0.30;;;12.40;82.90;;;;;;5054989;28;20048;-67
2022/12/27 00:40:41;;;;;;;0.77;0.43;;;12.30;83.40;;;;;;5055122;28;20044;-66
2022/12/27 00:43:07;;;;;;;0.38;0.38;;;12.30;83.90;;;;;;5055068;28;20040;-67
2022/12/27 00:45:33;;;;;;;0.45;0.20;;;12.20;84.80;;;;;;5054505;28;20027;-67
2022/12/27 00:47:59;;;;;;;0.25;0.25;;;12.20;85.20;;;;;;5054655;28;20025;-66
2022/12/27 00:50:24;;;;;;;0.50;0.30;;;12.20;85.90;;;;;;5054634;28;20036;-66
2022/12/27 00:52:50;;;;;;;0.32;0.30;;;12.10;85.90;;;;;;5054767;28;20143;-66
2022/12/27 00:55:16;;;;;;;1.52;0.30;;;12.10;86.40;;;;;;5054629;28;20021;-69
2022/12/27 00:57:42;;;;;;;0.30;0.30;;;12.00;87.10;;;;;;5054913;28;20082;-67
2022/12/27 01:00:08;;;;;;;1.65;0.20;;;12.00;87.60;;;;;;5054820;28;20074;-66
2022/12/27 01:02:33;;;;;;;1.08;0.32;;;11.90;87.90;;;;;;5054079;28;20469;-67
2022/12/27 01:04:59;;;;;;;0.30;0.28;;;11.90;88.30;;;;;;5054485;28;20078;-66
2022/12/27 01:07:25;;;;;;;0.20;0.20;;;11.90;88.40;;;;;;5054283;28;20063;-67
2022/12/27 01:09:50;;;;;;;0.38;0.20;;;11.80;88.80;;;;;;5054979;28;20037;-66
2022/12/27 01:12:16;;;;;;;0.40;0.30;;;11.70;89.40;;;;;;5054952;28;20029;-66
2022/12/27 01:14:42;;;;;;;0.30;0.30;;;11.70;90.00;;;;;;5054642;28;20025;-67
2022/12/27 01:17:08;;;;;;;1.75;0.57;;;11.70;90.30;;;;;;5054143;28;20025;-67
2022/12/27 01:19:38;;;;;;;0.22;0.20;;;11.60;90.60;;;;;;5054013;28;20028;-67
2022/12/27 01:22:04;;;;;;;0.20;0.20;;;11.60;90.90;;;;;;5054287;28;20083;-66
2022/12/27 01:24:31;;;;;;;0.40;0.40;;;11.60;91.10;;;;;;5054128;28;20029;-67
2022/12/27 01:26:56;;;;;;;0.80;0.40;;;11.50;91.30;;;;;;5054282;28;20108;-67
2022/12/27 01:29:22;;;;;;;0.35;0.30;;;11.50;91.60;;;;;;5054051;28;20112;-67
2022/12/27 01:31:48;;;;;;;0.43;0.30;;;11.50;91.90;;;;;;5054071;28;20052;-67
2022/12/27 01:34:16;;;;;;;1.55;0.25;;;11.50;92.40;;;;;;5054168;28;20033;-66
2022/12/27 01:36:42;;;;;;;0.75;0.32;;;11.50;92.70;;;;;;5053744;28;20052;-66
2022/12/27 01:39:12;;;;;;;1.55;0.32;;;11.40;92.90;;;;;;5054472;28;20048;-66
2022/12/27 01:44:37;;;;;;;0.55;0.30;;;11.40;93.60;;;;;;5053633;28;20537;-67
2022/12/27 01:47:09;;;;;;;0.60;0.57;;;11.30;93.80;;;;;;5053990;28;20470;-66
2022/12/27 01:49:35;;;;;;;0.40;0.30;;;11.30;93.80;;;;;;5053355;28;20043;-66
2022/12/27 01:52:00;;;;;;;1.85;0.40;;;11.30;94.10;;;;;;5053599;28;20509;-67
2022/12/27 01:54:26;;;;;;;0.43;0.32;;;11.30;94.20;;;;;;5053295;28;20454;-67
2022/12/27 01:56:54;;;;;;;1.17;0.40;;;11.30;94.30;;;;;;5053484;28;20016;-67
2022/12/27 01:59:20;;;;;;;2.92;0.50;;;11.30;94.40;;;;;;5052988;28;20029;-68
2022/12/27 02:01:47;;;;;;;1.70;0.32;;;11.30;94.60;;;;;;5053741;28;20124;-66
2022/12/27 02:04:17;;;;;;;0.35;0.35;;;11.30;94.70;;;;;;5053922;28;20154;-66
2022/12/27 02:06:45;;;;;;;0.40;0.40;;;11.20;94.90;;;;;;5052905;28;20467;-67
2022/12/27 02:09:23;;;;;;;1.30;0.40;;;11.20;95.10;;;;;;5053522;28;20067;-66
2022/12/27 02:11:56;;;;;;;0.70;0.50;;;11.20;95.10;;;;;;5053177;28;20481;-66
2022/12/27 02:14:33;;;;;;;0.63;0.40;;;11.20;95.30;;;;;;5052739;28;20186;-69
2022/12/27 02:17:02;;;;;;;0.63;0.40;;;11.20;95.30;;;;;;5053465;28;20139;-67
2022/12/27 02:19:28;;;;;;;0.43;0.40;;;11.20;95.50;;;;;;5052861;28;20025;-67
2022/12/27 02:22:24;;;;;;;0.93;0.50;;;11.10;95.50;;;;;;5053286;28;20029;-67
2022/12/27 02:24:56;;;;;;;0.30;0.30;;;11.10;95.60;;;;;;5053554;28;20024;-66
2022/12/27 02:27:42;;;;;;;0.40;0.40;;;11.10;95.70;;;;;;5053299;28;20029;-66
2022/12/27 02:30:11;;;;;;;0.38;0.38;;;11.10;95.80;;;;;;5053277;28;20488;-66
2022/12/27 02:33:00;;;;;;;0.73;0.55;;;11.00;96.10;;;;;;5052635;28;20110;-66
2022/12/27 02:35:31;;;;;;;1.13;0.60;;;11.00;96.00;;;;;;5052395;28;20470;-67
2022/12/27 02:38:07;;;;;;;0.73;0.55;;;11.00;96.00;;;;;;5052720;28;20056;-66
2022/12/27 02:55:24;;;;;;;0.40;0.40;;;10.90;95.80;;;;;;5052433;28;20117;-67
2022/12/27 02:58:48;;;;;;;0.80;0.50;;;10.90;95.80;;;;;;5052808;28;20025;-67
2022/12/27 03:04:19;;;;;;;1.38;0.25;;;10.90;95.40;;;;;;5052356;28;20158;-69
2022/12/27 03:06:59;;;;;;;0.63;0.35;;;10.80;95.20;;;;;;5052242;28;20028;-66
2022/12/27 03:15:54;;;;;;;0.65;0.47;;;10.80;95.10;;;;;;5051964;28;20162;-70
2022/12/27 03:18:31;;;;;;;0.47;0.45;;;10.80;95.30;;;;;;5052502;28;20036;-66
2022/12/27 03:26:34;;;;;;;0.82;0.45;;;10.80;95.60;;;;;;5051992;28;20090;-65
2022/12/27 03:34:41;;;;;;;0.90;0.57;;;10.60;96.20;;;;;;5051986;28;20041;-66
2022/12/27 03:40:19;;;;;;;0.63;0.40;;;10.60;95.90;;;;;;5052317;28;20039;-66
2022/12/27 03:43:10;;;;;;;1.30;0.60;;;10.60;96.00;;;;;;5051838;28;20029;-65
2022/12/27 03:46:33;;;;;;;0.50;0.50;;;10.50;95.30;;;;;;5051909;28;20120;-66
2022/12/27 03:49:04;;;;;;;1.40;0.50;;;10.50;94.90;;;;;;5052044;28;20114;-68
2022/12/27 03:51:38;;;;;;;1.85;0.50;;;10.50;94.50;;;;;;5051715;28;20063;-66
2022/12/27 03:54:29;;;;;;;0.98;0.55;;;10.50;93.60;;;;;;5052128;28;20052;-66
2022/12/27 03:57:06;;;;;;;4.43;0.52;;;10.50;93.00;;;;;;5052032;28;20512;-66
2022/12/27 03:59:33;;;;;;;0.50;0.50;;;10.50;92.50;;;;;;5051726;28;20064;-66
2022/12/27 04:01:58;;;;;;;0.88;0.45;;;10.50;91.70;;;;;;5051885;28;20025;-66
2022/12/27 04:04:24;;;;;;;1.73;0.55;;;10.40;91.70;;;;;;5051959;28;20033;-66
2022/12/27 04:06:50;;;;;;;0.47;0.40;;;10.40;91.70;;;;;;5051637;28;20025;-67
2022/12/27 04:36:37;;;;;;;1.13;0.57;;;10.00;92.40;;;;;;5034697;28;20048;-66
2022/12/27 04:39:02;;;;;;;1.13;0.68;;;10.00;92.90;;;;;;5035594;28;20128;-67
2022/12/27 04:55:20;;;;;;;0.95;0.47;;;9.90;93.10;;;;;;5035134;28;20485;-66
2022/12/27 04:57:46;;;;;;;0.63;0.50;;;9.80;92.90;;;;;;5034325;28;20356;-67
2022/12/27 05:02:59;;;;;;;0.70;0.47;;;9.80;92.90;;;;;;5034127;28;20039;-66
2022/12/27 05:05:25;;;;;;;1.17;0.30;;;9.80;92.70;;;;;;5034715;28;20033;-66
2022/12/27 05:16:05;;;;;;;0.57;0.50;;;9.70;93.80;;;;;;5034367;28;20092;-66
2022/12/27 05:18:30;;;;;;;2.97;0.80;;;9.70;93.60;;;;;;5034291;28;20082;-66
2022/12/27 05:21:01;;;;;;;1.52;0.70;;;9.70;93.40;;;;;;5032770;28;20034;-66
2022/12/27 05:26:21;;;;;;;1.55;0.50;;;9.70;92.70;;;;;;5034199;28;20401;-66
2022/12/27 05:28:47;;;;;;;0.65;0.63;;;9.70;92.60;;;;;;5034004;28;20026;-66
2022/12/27 05:31:13;;;;;;;2.30;0.82;;;9.60;92.90;;;;;;5034453;28;20079;-66
2022/12/27 05:33:39;;;;;;;1.35;0.60;;;9.60;92.00;;;;;;5033914;28;20026;-66
2022/12/27 05:36:05;;;;;;;0.90;0.60;;;9.60;91.90;;;;;;5033608;28;20053;-66
2022/12/27 05:38:31;;;;;;;2.92;0.68;;;9.60;91.80;;;;;;5034022;28;20057;-66
2022/12/27 05:40:58;;;;;;;0.50;0.47;;;9.50;91.20;;;;;;5034026;28;20367;-66
2022/12/27 05:43:24;;;;;;;3.15;0.45;;;9.50;91.00;;;;;;5034138;28;20025;-65
2022/12/27 05:45:49;;;;;;;1.30;0.50;;;9.50;90.90;;;;;;5033555;28;20030;-66
2022/12/27 05:48:15;;;;;;;1.23;0.45;;;9.50;90.70;;;;;;5034044;28;20450;-66
2022/12/27 05:50:41;;;;;;;1.13;0.65;;;9.40;90.40;;;;;;5033550;28;20033;-66
2022/12/27 05:53:06;;;;;;;1.08;0.60;;;9.40;89.20;;;;;;5034016;28;20056;-66
2022/12/27 05:55:32;;;;;;;0.57;0.50;;;9.40;89.80;;;;;;5033680;28;20463;-66
2022/12/27 05:57:57;;;;;;;2.78;0.70;;;9.40;89.20;;;;;;5033420;28;20026;-66
2022/12/27 06:00:23;;;;;;;0.90;0.63;;;9.30;88.70;;;;;;5033712;28;20026;-66
2022/12/27 06:02:49;;;;;;;1.25;0.63;;;9.30;88.40;;;;;;5032921;28;20159;-66
2022/12/27 06:05:14;;;;;;;0.65;0.50;;;9.20;87.80;;;;;;5033607;28;20025;-66
2022/12/27 06:07:40;;;;;;;0.45;0.40;;;9.20;87.30;;;;;;5033237;28;20032;-67
2022/12/27 06:10:08;;;;;;;1.83;0.50;;;9.20;86.50;;;;;;5033510;28;20025;-66
2022/12/27 06:12:34;;;;;;;1.95;0.55;;;9.10;85.70;;;;;;5033511;28;20036;-66
2022/12/27 06:15:00;;;;;;;1.67;0.60;;;9.10;85.70;;;;;;5032778;28;20138;-67
2022/12/27 06:17:25;;;;;;;3.75;0.52;;;9.00;83.20;;;;;;5033333;28;20049;-67
2022/12/27 06:19:51;;;;;;;0.73;0.50;;;9.00;82.70;;;;;;5032965;28;20032;-67
2022/12/27 06:22:17;;;;;;;2.03;0.50;;;9.00;81.10;;;;;;5033181;28;20055;-67
2022/12/27 06:24:42;;;;;;;2.50;0.68;;;8.90;80.60;;;;;;5043721;28;20037;-67
2022/12/27 06:27:08;;;;;;;3.80;0.60;;;8.90;79.70;;;;;;5052623;28;20062;-67
2022/12/27 06:29:34;;;;;;;0.65;0.60;;;8.90;79.00;;;;;;5053159;28;20042;-67
2022/12/27 06:31:59;;;;;;;0.40;0.40;;;8.80;78.50;;;;;;5052554;28;20048;-66
2022/12/27 06:34:25;;;;;;;0.75;0.57;;;8.70;76.90;;;;;;5052847;28;20066;-66
2022/12/27 06:36:51;;;;;;;0.88;0.52;;;8.70;76.40;;;;;;5052516;28;20029;-67
2022/12/27 06:39:17;;;;;;;1.00;0.60;;;8.60;76.00;;;;;;5052457;28;20045;-66
2022/12/27 06:41:43;;;;;;;0.40;0.40;;;8.60;75.70;;;;;;5052481;28;20037;-67
2022/12/27 06:44:09;;;;;;;3.00;1.00;;;8.50;75.50;;;;;;5053032;28;20036;-66
2022/12/27 06:46:35;;;;;;;1.63;0.60;;;8.50;75.70;;;;;;5052545;28;20029;-66
2022/12/27 06:49:01;;;;;;;1.55;0.70;;;8.40;75.90;;;;;;5052347;28;20021;-66
2022/12/27 06:51:26;;;;;;;1.75;0.60;;;8.30;75.90;;;;;;5052671;28;20033;-66
2022/12/27 06:53:52;;;;;;;1.73;0.80;;;8.30;75.30;;;;;;5052259;28;20029;-66
2022/12/27 06:56:21;;;;;;;3.22;0.80;;;8.20;75.50;;;;;;5052585;28;20136;-66
2022/12/27 06:58:48;;;;;;;0.80;0.45;;;8.10;75.30;;;;;;5052166;28;20032;-65
2022/12/27 07:01:22;;;;;;;1.52;0.80;;;8.20;75.50;;;;;;5051955;28;20545;-66
2022/12/27 07:03:50;;;;;;;1.65;0.70;;;8.00;75.60;;;;;;5052147;28;20037;-66
2022/12/27 07:06:16;;;;;;;1.85;0.75;;;8.00;75.80;;;;;;5052528;28;20029;-66
2022/12/27 07:08:41;;;;;;;2.80;0.90;;;7.90;75.40;;;;;;5052463;28;20029;-66
2022/12/27 07:11:10;;;;;;;2.42;1.20;;;7.90;75.60;;;;;;5052331;28;20048;-66
2022/12/27 07:13:40;;;;;;;0.77;0.65;;;7.90;75.40;;;;;;5052374;28;20036;-66
2022/12/27 07:16:08;;;;;;;1.20;0.70;;;7.80;74.20;;;;;;5051848;28;20108;-66
2022/12/27 07:18:33;;;;;;;1.08;0.80;;;7.80;74.10;;;;;;5052352;28;20044;-68
2022/12/27 07:21:06;;;;;;;1.17;0.80;;;7.80;73.20;;;;;;5051984;28;20033;-67
2022/12/27 07:23:32;;;;;;;1.70;0.80;;;7.80;73.10;;;;;;5052383;28;20492;-66
2022/12/27 07:26:13;;;;;;;1.75;0.70;;;7.80;72.90;;;;;;5051851;28;20033;-66
2022/12/27 07:28:39;;;;;;;1.52;0.70;;;7.80;72.80;;;;;;5052156;28;20031;-66
2022/12/27 07:31:16;;;;;;;2.28;0.90;;;7.70;72.20;;;;;;5051736;28;20035;-66
2022/12/27 07:33:42;;;;;;;2.53;0.70;;;7.70;72.60;;;;;;5052072;28;20113;-66
2022/12/27 07:36:13;;;;;;;1.20;0.60;;;7.70;72.90;;;;;;5051623;28;20021;-66
2022/12/27 07:38:38;;;;;;;2.50;0.80;;;7.70;73.20;;;;;;5051873;28;20059;-65
2022/12/27 07:41:04;;;;;;;1.60;1.00;;;7.70;72.80;;;;;;5051275;28;20059;-66
2022/12/27 07:43:34;;;;;;;0.50;0.50;;;7.70;72.60;;;;;;5051736;28;20045;-66
2022/12/27 07:46:05;;;;;;;4.28;0.75;;;7.70;72.70;;;;;;5051675;28;20067;-66
2022/12/27 07:48:31;;;;;;;2.97;1.00;;;7.60;73.10;;;;;;5051922;28;20035;-66
2022/12/27 07:50:57;;;;;;;0.60;0.45;;;7.60;72.70;;;;;;5051551;28;20025;-66
2022/12/27 07:53:23;;;;;;;1.15;0.60;;;7.60;72.70;;;;;;5052055;28;20055;-67
2022/12/27 07:55:49;;;;;;;2.72;0.70;;;7.60;73.20;;;;;;5051523;28;20040;-67
2022/12/27 07:58:16;;;;;;;1.40;0.80;;;7.60;73.00;;;;;;5053524;28;20112;-66
2022/12/27 08:00:44;;;;;;;2.10;0.80;;;7.60;73.10;;;;;;5055416;28;20029;-65
2022/12/27 08:03:10;;;;;;;1.38;0.80;;;7.60;72.90;;;;;;5054982;28;20076;-66
2022/12/27 08:05:36;;;;;;;1.15;0.65;;;7.60;73.10;;;;;;5055720;28;20091;-65
2022/12/27 08:08:02;;;;;;;0.98;0.80;;;7.60;73.30;;;;;;5055160;28;20029;-66
2022/12/27 08:10:28;;;;;;;2.30;0.70;;;7.60;73.50;;;;;;5055639;28;20021;-66
2022/12/27 08:12:53;;;;;;;2.17;0.75;;;7.60;73.00;;;;;;5055515;28;20481;-66
2022/12/27 08:15:20;;;;;;;1.27;0.70;;;7.60;73.10;;;;;;5055607;28;20228;-66
2022/12/27 08:17:45;;;;;;;0.98;0.65;;;7.60;73.20;;;;;;5055120;28;20477;-67
2022/12/27 08:20:14;;;;;;;2.92;0.93;;;7.60;73.60;;;;;;5054908;28;20110;-65
2022/12/27 08:22:40;;;;;;;0.93;0.80;;;7.60;73.70;;;;;;5055373;28;20127;-66
2022/12/27 08:25:06;;;;;;;1.00;0.90;;;7.70;73.80;;;;;;5054849;28;20111;-65
2022/12/27 08:27:32;;;;;;;2.42;0.80;;;7.70;74.10;;;;;;5055293;28;20033;-66
2022/12/27 08:29:57;;;;;;;2.20;0.77;;;7.70;73.70;;;;;;5054875;28;20031;-66
2022/12/27 08:32:23;;;;;;;1.17;0.80;;;7.70;73.70;;;;;;5055279;28;20099;-66
2022/12/27 08:34:49;;;;;;;1.40;0.88;;;7.60;73.00;;;;;;5052760;28;20492;-69
2022/12/27 08:37:15;;;;;;;1.42;0.73;;;7.60;73.40;;;;;;5054801;28;20414;-66
2022/12/27 08:39:41;;;;;;;1.67;0.98;;;7.70;73.50;;;;;;5054894;28;20029;-66
2022/12/27 08:42:11;;;;;;;2.40;1.00;;;7.70;73.50;;;;;;5053472;28;20029;-67
2022/12/27 08:44:37;;;;;;;2.40;1.17;;;7.60;74.00;;;;;;5055159;28;20060;-66
2022/12/27 08:47:03;;;;;;;0.80;0.77;;;7.50;74.70;;;;;;5054969;28;20060;-66
2022/12/27 08:49:29;;;;;;;1.50;0.63;;;7.40;74.60;;;;;;5054652;28;20452;-67
2022/12/27 08:51:54;;;;;;;2.30;1.10;;;7.40;74.60;;;;;;5054588;28;20108;-67
2022/12/27 08:54:20;;;;;;;1.75;1.10;;;7.40;75.10;;;;;;5054868;28;20072;-65
2022/12/27 08:56:46;;;;;;;4.50;1.25;;;7.30;75.60;;;;;;5054934;28;20047;-66
2022/12/27 08:59:12;;;;;;;1.40;1.02;;;7.30;75.40;;;;;;5054357;28;20051;-65
2022/12/27 09:01:38;;;;;;;1.80;1.05;;;7.30;75.00;;;;;;5054476;28;20128;-66
2022/12/27 09:04:04;;;;;;;0.98;0.80;;;7.30;75.10;;;;;;5054247;28;20029;-66
2022/12/27 09:06:29;;;;;;;2.55;1.33;;;7.30;75.20;;;;;;5054641;28;20069;-65
2022/12/27 09:08:55;;;;;;;2.17;1.10;;;7.30;75.40;;;;;;5054148;28;20021;-66
2022/12/27 09:11:24;;;;;;;1.17;0.90;;;7.20;75.30;;;;;;5054608;28;20025;-66
2022/12/27 09:13:50;;;;;;;1.00;0.80;;;7.30;75.30;;;;;;5054627;28;20025;-66
2022/12/27 09:16:24;;;;;;;4.25;1.02;;;7.30;74.80;;;;;;5054423;28;20470;-66
2022/12/27 09:18:52;;;;;;;1.63;0.98;;;7.30;75.10;;;;;;5054420;28;20102;-66
2022/12/27 09:21:19;;;;;;;3.47;0.73;;;7.30;75.20;;;;;;5054352;28;20055;-66
2022/12/27 09:23:46;;;;;;;1.10;0.90;;;7.30;74.90;;;;;;5054291;28;20115;-66
2022/12/27 09:26:18;;;;;;;2.75;0.90;;;7.20;75.30;;;;;;5053606;28;20396;-66
2022/12/27 09:28:45;;;;;;;2.47;0.85;;;7.30;74.50;;;;;;5054101;28;20021;-66
2022/12/27 09:31:12;;;;;;;3.20;0.90;;;7.30;74.00;;;;;;5053931;28;20064;-66
2022/12/27 09:33:38;;;;;;;1.55;0.82;;;7.30;73.50;;;;;;5054211;28;20079;-65
2022/12/27 09:36:15;;;;;;;2.45;0.88;;;7.30;73.80;;;;;;5053712;28;20420;-65
2022/12/27 09:38:41;;;;;;;1.63;0.90;;;7.40;73.70;;;;;;5054190;28;20053;-67
2022/12/27 09:41:52;;;;;;;2.50;0.88;;;7.40;72.30;;;;;;5053593;28;20061;-67
2022/12/27 09:44:28;;;;;;;3.57;1.07;;;7.40;72.50;;;;;;5053376;28;20083;-67
2022/12/27 09:47:09;;;;;;;2.58;1.23;;;7.40;72.60;;;;;;5053602;28;20079;-69
2022/12/27 09:49:55;;;;;;;2.73;1.07;;;7.30;72.30;;;;;;5053880;28;20021;-67
2022/12/27 09:52:56;;;;;;;3.88;1.10;;;7.30;72.60;;;;;;5053847;28;20037;-67
2022/12/27 09:55:40;;;;;;;1.58;0.88;;;7.30;72.70;;;;;;5053735;28;20060;-67
2022/12/27 09:58:35;;;;;;;3.97;1.13;;;7.40;72.50;;;;;;5052988;28;20025;-67
2022/12/27 10:01:05;;;;;;;1.60;1.02;;;7.40;72.40;;;;;;5052838;28;20067;-67
2022/12/27 10:03:31;;;;;;;2.05;0.90;;;7.40;72.30;;;;;;5053543;28;20079;-67
2022/12/27 10:06:21;;;;;;;1.23;0.90;;;7.50;72.30;;;;;;5052862;28;20496;-67
2022/12/27 10:09:05;;;;;;;2.72;1.00;;;7.60;71.60;;;;;;5052376;28;20025;-67
2022/12/27 10:11:48;;;;;;;3.17;1.05;;;7.80;70.50;;;;;;5053211;28;20039;-67
2022/12/27 10:14:29;;;;;;;2.28;1.10;;;8.00;69.70;;;;;;5051752;28;20112;-67
2022/12/27 10:17:03;;;;;;;;;;;8.10;68.00;;;;;;5053778;28;20017;-67
2022/12/27 10:19:51;;;;;;;2.65;0.93;;;8.30;66.30;;;;;;5052965;28;19912;-67
2022/12/27 10:22:39;;;;;;;1.52;0.70;;;8.50;65.60;;;;;;5052154;28;20080;-66
2022/12/27 10:25:12;;;;;;;3.83;1.05;;;8.60;63.80;;;;;;5052834;28;20029;-66
2022/12/27 10:27:38;;;;;;;1.50;0.80;;;8.80;62.10;;;;;;5053214;28;20481;-66
2022/12/27 10:30:18;;;;;;;2.83;0.70;;;8.80;61.30;;;;;;5052205;28;20036;-66
2022/12/27 10:32:45;;;;;;;2.63;1.63;;;8.80;60.30;;;;;;5053080;28;20446;-66
2022/12/27 10:35:17;;;;;;;1.77;0.90;;;8.80;59.50;;;;;;5052472;28;20466;-66
2022/12/27 10:37:43;;;;;;;4.68;0.95;;;8.90;59.20;;;;;;5052736;28;20183;-66
2022/12/27 10:40:19;;;;;;;2.63;0.90;;;8.90;58.70;;;;;;5052391;28;20470;-66
2022/12/27 10:42:57;;;;;;;4.05;1.15;;;8.90;57.80;;;;;;5052820;28;20033;-66
2022/12/27 10:45:33;;;;;;;1.08;0.65;;;9.00;57.30;;;;;;5052750;28;20375;-66
2022/12/27 10:48:24;;;;;;;3.90;0.95;;;9.10;57.60;;;;;;5051910;28;20417;-67
2022/12/27 10:50:57;;;;;;;1.10;0.85;;;9.10;57.20;;;;;;5052613;28;20036;-65
2022/12/27 10:53:32;;;;;;;4.50;0.90;;;9.10;57.40;;;;;;5052324;28;20039;-66
2022/12/27 10:56:20;;;;;;;2.22;0.90;;;9.10;57.80;;;;;;5052548;28;20021;-66
2022/12/27 10:58:47;;;;;;;1.40;0.80;;;9.20;57.20;;;;;;5052612;28;20450;-66
2022/12/27 11:01:21;;;;;;;2.38;1.05;;;9.30;57.60;;;;;;5053133;28;20523;-66
2022/12/27 11:03:47;;;;;;;2.92;0.85;;;9.30;57.60;;;;;;5053844;28;20028;-65
2022/12/27 11:06:31;;;;;;;2.92;0.80;;;9.50;56.70;;;;;;5053217;28;20385;-66
2022/12/27 11:08:56;;;;;;;1.50;0.90;;;9.50;56.30;;;;;;5053901;28;20176;-66
2022/12/27 11:11:25;;;;;;;2.58;1.08;;;9.50;55.40;;;;;;5053589;28;20151;-66
2022/12/27 11:13:51;;;;;;;2.58;0.70;;;9.60;54.90;;;;;;5054348;28;20036;-66
2022/12/27 11:16:33;;;;;;;4.70;1.05;;;9.70;55.40;;;;;;5054008;28;20029;-66
2022/12/27 11:19:00;;;;;;;4.00;1.27;;;9.70;54.70;;;;;;5054614;28;20447;-65
2022/12/27 11:21:27;;;;;;;1.75;0.93;;;9.60;54.80;;;;;;5052811;28;20090;-66
2022/12/27 11:24:00;;;;;;;2.25;1.00;;;9.70;55.10;;;;;;5053083;28;20036;-67
2022/12/27 11:26:40;;;;;;;3.67;0.98;;;9.60;55.20;;;;;;5052159;28;20234;-67
2022/12/27 11:29:16;;;;;;;1.77;0.70;;;9.60;54.20;;;;;;5051972;28;20078;-67
2022/12/27 11:31:47;;;;;;;3.13;1.45;;;9.60;55.00;;;;;;5052242;28;20037;-67
2022/12/27 11:34:29;;;;;;;3.22;1.05;;;9.60;55.10;;;;;;5055199;28;20171;-67
2022/12/27 11:37:13;;;;;;;1.52;0.90;;;9.50;55.80;;;;;;5056525;28;20021;-67
2022/12/27 11:39:49;;;;;;;1.83;0.90;;;9.60;55.80;;;;;;5056439;28;20033;-67
2022/12/27 11:42:17;;;;;;;1.70;0.70;;;9.60;55.10;;;;;;5055747;28;20123;-67
2022/12/27 11:44:49;;;;;;;3.65;0.90;;;9.70;55.30;;;;;;5056069;28;20025;-67
2022/12/27 11:47:38;;;;;;;2.83;1.10;;;9.70;55.50;;;;;;5056165;28;20032;-66
2022/12/27 11:50:26;;;;;;;0.95;0.82;;;9.60;55.90;;;;;;5055862;28;20025;-67
2022/12/27 11:53:15;;;;;;;2.63;1.23;;;9.50;56.40;;;;;;5055920;28;20132;-67
2022/12/27 11:55:44;;;;;;;5.40;1.30;;;9.60;56.80;;;;;;5055758;28;20029;-66
2022/12/27 11:59:03;;;;;;;1.25;0.80;;;9.50;57.20;;;;;;5055593;28;20083;-67
2022/12/27 12:01:35;;;;;;;3.53;1.25;;;9.40;56.80;;;;;;5053466;28;20036;-67
2022/12/27 12:04:03;;;;;;;;;;;9.30;57.80;;;;;;5055829;28;20049;-67
2022/12/27 12:06:35;;;;;;;1.55;1.38;;;9.20;58.40;;;;;;5055677;28;19912;-67
2022/12/27 12:09:24;;;;;;;2.28;0.98;;;9.30;58.70;;;;;;5055925;28;20102;-67
2022/12/27 12:11:50;;;;;;;5.45;1.20;;;9.30;58.50;;;;;;5055623;28;20059;-67
2022/12/27 12:14:24;;;;;;;2.55;1.15;;;9.20;58.90;;;;;;5055380;28;20028;-67
2022/12/27 12:16:50;;;;;;;4.40;1.45;;;9.30;59.20;;;;;;5055460;28;20048;-67
2022/12/27 12:19:47;;;;;;;2.38;1.55;;;9.30;59.00;;;;;;5055087;28;20446;-66
2022/12/27 12:22:33;;;;;;;3.10;1.00;;;9.40;58.80;;;;;;5055157;28;20037;-66
2022/12/27 12:25:33;;;;;;;3.60;1.00;;;9.40;58.20;;;;;;5055315;28;20531;-67
2022/12/27 12:28:14;;;;;;;2.15;0.95;;;9.40;58.50;;;;;;5054989;28;20029;-65
2022/12/27 12:31:08;;;;;;;3.70;1.15;;;9.30;58.20;;;;;;5055410;28;20040;-66
2022/12/27 12:33:34;;;;;;;2.67;1.40;;;9.40;57.90;;;;;;5055370;28;20382;-65
2022/12/27 12:36:47;;;;;;;3.72;0.88;;;9.40;58.00;;;;;;5055067;28;20032;-66
2022/12/27 12:39:47;;;;;;;2.85;1.23;;;9.30;57.70;;;;;;5042232;28;20040;-65
2022/12/27 12:42:27;;;;;;;3.17;1.30;;;9.30;58.00;;;;;;5054201;28;20390;-66
2022/12/27 12:45:30;;;;;;;4.40;1.00;;;9.10;57.00;;;;;;5054669;28;20037;-66
2022/12/27 12:48:21;;;;;;;2.40;0.88;;;9.10;57.80;;;;;;5055104;28;20459;-67
2022/12/27 12:50:47;;;;;;;;;;;9.10;58.00;;;;;;5055598;28;20053;-66
2022/12/27 12:53:50;;;;;;;2.38;1.23;;;9.00;58.30;;;;;;5054903;28;19951;-67
2022/12/27 12:56:27;;;;;;;4.32;1.20;;;9.10;58.50;;;;;;5054186;28;20025;-67
2022/12/27 12:59:27;;;;;;;3.20;0.80;;;9.00;59.00;;;;;;5054764;28;20029;-67
2022/12/27 13:01:53;;;;;;;4.10;1.10;;;9.10;58.90;;;;;;5055070;28;20060;-65
2022/12/27 13:04:55;;;;;;;2.15;0.82;;;9.10;58.30;;;;;;5054314;28;20033;-65
2022/12/27 13:07:40;;;;;;;4.30;0.90;;;9.00;58.40;;;;;;5054620;28;20466;-66
2022/12/27 13:10:39;;;;;;;2.45;1.20;;;9.00;57.90;;;;;;5053597;28;20359;-67
2022/12/27 13:13:17;;;;;;;2.03;1.00;;;8.90;59.00;;;;;;5054542;28;20025;-66
2022/12/27 13:16:10;;;;;;;2.38;1.00;;;8.80;59.50;;;;;;5054606;28;20501;-66
2022/12/27 13:18:44;;;;;;;2.85;0.90;;;8.80;59.40;;;;;;5054385;28;20516;-66
2022/12/27 13:21:18;;;;;;;2.30;0.80;;;8.70;60.20;;;;;;5054351;28;20037;-68
2022/12/27 13:24:25;;;;;;;4.88;1.08;;;8.70;60.30;;;;;;5054438;28;20122;-66
2022/12/27 13:27:34;;;;;;;3.65;1.02;;;8.60;61.00;;;;;;5054531;28;20032;-66
2022/12/27 13:30:18;;;;;;;2.42;1.00;;;8.50;61.50;;;;;;5051547;28;20056;-66
2022/12/27 13:33:22;;;;;;;1.92;1.00;;;8.50;62.00;;;;;;5054304;28;20118;-66
2022/12/27 13:36:17;;;;;;;4.65;1.30;;;8.40;62.40;;;;;;5054148;28;20025;-65
2022/12/27 13:39:04;;;;;;;7.00;1.13;;;8.40;62.60;;;;;;5053988;28;20052;-65
2022/12/27 13:42:05;;;;;;;3.30;1.10;;;8.30;62.70;;;;;;5053625;28;20039;-66
2022/12/27 13:45:17;;;;;;;3.42;1.08;;;8.30;63.40;;;;;;5052467;28;20102;-66
2022/12/27 13:47:55;;;;;;;4.30;1.30;;;8.30;63.90;;;;;;5053926;28;20060;-65
2022/12/27 13:50:41;;;;;;;2.85;0.98;;;8.20;64.00;;;;;;5053288;28;20033;-66
2022/12/27 13:53:38;;;;;;;4.10;0.90;;;8.20;64.40;;;;;;5053696;28;20029;-66
2022/12/27 13:56:12;;;;;;;3.78;1.00;;;8.10;64.30;;;;;;5053110;28;20024;-66
2022/12/27 13:58:52;;;;;;;1.90;1.05;;;8.10;64.60;;;;;;5054012;28;20358;-65
2022/12/27 14:01:24;;;;;;;3.55;1.30;;;8.10;65.10;;;;;;5053463;28;20053;-65
2022/12/27 14:04:07;;;;;;;4.03;1.35;;;8.00;65.90;;;;;;5053719;28;20104;-66
2022/12/27 14:06:45;;;;;;;5.53;1.00;;;8.00;65.30;;;;;;5053298;28;20028;-65
2022/12/27 14:09:17;;;;;;;3.95;1.17;;;7.90;65.60;;;;;;5053339;28;20083;-65
2022/12/27 14:12:10;;;;;;;3.78;1.48;;;7.90;65.90;;;;;;5052772;28;20040;-65
2022/12/27 14:14:38;;;;;;;4.13;1.20;;;7.90;66.10;;;;;;5053308;28;20327;-65
2022/12/27 14:17:22;;;;;;;2.75;1.00;;;7.80;66.40;;;;;;5053234;28;20116;-67
2022/12/27 14:20:08;;;;;;;8.98;1.50;;;7.80;66.60;;;;;;5053336;28;20029;-66
2022/12/27 14:22:34;;;;;;;3.47;1.15;;;7.80;66.80;;;;;;5052763;28;20391;-66
2022/12/27 14:25:27;;;;;;;2.67;1.23;;;7.80;66.90;;;;;;5053377;28;20429;-66
2022/12/27 14:28:12;;;;;;;3.80;1.33;;;7.80;67.10;;;;;;5053380;28;20067;-66
2022/12/27 14:31:02;;;;;;;2.90;1.02;;;7.70;67.40;;;;;;5052553;28;20021;-66
2022/12/27 14:33:37;;;;;;;3.28;1.23;;;7.70;67.50;;;;;;5052173;28;20060;-66
2022/12/27 14:36:27;;;;;;;2.42;1.27;;;7.70;67.40;;;;;;5052553;28;20480;-66
2022/12/27 14:39:23;;;;;;;5.63;3.03;;;7.60;67.90;;;;;;5053023;28;20049;-66
2022/12/27 14:42:03;;;;;;;5.63;1.77;;;7.60;68.10;;;;;;5052806;28;20133;-66
2022/12/27 14:45:08;;;;;;;8.73;1.58;;;7.60;68.30;;;;;;5052330;28;20057;-66
2022/12/27 14:47:51;;;;;;;4.05;1.20;;;7.60;68.50;;;;;;5051165;28;20025;-66
2022/12/27 14:50:35;;;;;;;3.25;1.30;;;7.60;68.60;;;;;;5052459;28;20032;-66
2022/12/27 14:53:13;;;;;;;5.00;1.63;;;7.50;68.60;;;;;;5052413;28;20116;-66
2022/12/27 14:55:53;;;;;;;5.35;1.42;;;7.50;68.70;;;;;;5052232;28;20028;-66
2022/12/27 14:58:47;;;;;;;3.85;1.60;;;7.50;69.10;;;;;;5052314;28;20036;-67
2022/12/27 15:01:40;;;;;;;7.43;1.40;;;7.50;69.50;;;;;;5052581;28;20033;-65
2022/12/27 15:04:26;;;;;;;5.88;1.50;;;7.50;69.50;;;;;;5052274;28;20458;-66
2022/12/27 15:06:54;;;;;;;6.93;1.70;;;7.40;69.60;;;;;;5051581;28;20037;-66